Airfield :
LOGIN :

Register | Disclaimer

   EN    FR    IT 

 










Legend :    VFR   Marginal VFR   IFR   Intensive IFR   Very Intensive IFR
Visi :
Ceiling :
>= 8 km
>= 3000ft
5 to 8 km
1000 to 3000 ft
1500m to 5 km
500 to 1000 ft
800 to 1500m
200 to 500 ft
< 800m
< 200 ft
Symbols :   Thunderstorms  Fog  Heavy snow  Heavy precipitations  Wind > 20 kt
SIGMETs :     Misc.  Thunderstorms  Icing  Turbulence  Mountain Waves  Volcanic Ashes







- Airport Elevation : 1273 ft
- IATA code : LJU


LJLJ - Ljubljana

CURRENT METAR :
  • 140400Z 28004KT 230V300 9999 OVC030 00/00 Q1007 NOSIG

EXPIRED METARs :
  • 140330Z 27007KT 9999 BKN030 OVC050 00/M00 Q1007 NOSIG
  • 140300Z 00000KT 9999 BKN030 OVC050 M00/M00 Q1007 NOSIG
  • 140230Z VRB02KT 6000 OVC030 00/00 Q1008 NOSIG
  • 140200Z VRB02KT 6000 OVC030 00/00 Q1008 NOSIG
  • 140130Z VRB01KT 6000 OVC030 00/M00 Q1009 NOSIG

TAF TAF LJLJ
Valid from the 14 at 03:00 until the 15 at 03:00 UTC


140200Z 1403/1503 30003KT 7000 FEW003 OVC035
TEMPO 1403/1410 3500 -RA BR BKN010 OVC020
PROB40
TEMPO 1403/1408 0500 FZFG
BECMG 1408/1410 27005KT 9999
TEMPO 1412/1418 27010KT SCT035
TEMPO 1416/1503 7000 SHRA SCT030TCU BKN035
No reported NOTAMs for that airfield.
1 SIGMET reported for the Ljubljana FIR (LJLA) :
 
Severe turbulence
LJLA SIGMET 1 VALID 140400/140800 LJLJ
LJLA LJUBLJANA FIR SEV TURB FCST N OF N4609 AND W OF E01504 4000/9000FT STNR NC=



MET'MAP, your aeronautical weather chart ! - Copyright ORBIFLY December 2007 - Disclaimer

ORBIFLY MET'MAP TEAM :

Programming & Development : Alexandra Zaïnal
Concept & Development : Baudouin d'Aumeries
Co-Development & Prog : Marc-Olivier Méhu
Technical & hardware support : Manuel Goepfert

Contact : metmap@orbifly.com




SOURCES & CREDITS :

   NOAA